sensor_id;sensor_type;location;lat;lon;timestamp;temperature;humidity
5802;DHT22;2927;49.366;8.530;2022-08-21T00:01:16;20.10;99.90
5802;DHT22;2927;49.366;8.530;2022-08-21T00:03:42;20.00;99.90
5802;DHT22;2927;49.366;8.530;2022-08-21T00:06:08;20.00;22.40
5802;DHT22;2927;49.366;8.530;2022-08-21T00:08:34;19.90;1.00
5802;DHT22;2927;49.366;8.530;2022-08-21T00:11:00;19.90;1.00
5802;DHT22;2927;49.366;8.530;2022-08-21T00:13:26;19.90;1.00
5802;DHT22;2927;49.366;8.530;2022-08-21T00:15:51;19.80;1.00
5802;DHT22;2927;49.366;8.530;2022-08-21T00:18:17;19.90;1.00
5802;DHT22;2927;49.366;8.530;2022-08-21T00:20:44;19.70;6.50
5802;DHT22;2927;49.366;8.530;2022-08-21T00:23:11;19.70;1.00
5802;DHT22;2927;49.366;8.530;2022-08-21T00:25:37;19.60;76.20
5802;DHT22;2927;49.366;8.530;2022-08-21T00:28:03;19.60;99.90
5802;DHT22;2927;49.366;8.530;2022-08-21T00:30:30;19.60;99.90
5802;DHT22;2927;49.366;8.530;2022-08-21T00:32:56;19.60;99.90
5802;DHT22;2927;49.366;8.530;2022-08-21T00:35:29;19.50;99.90
5802;DHT22;2927;49.366;8.530;2022-08-21T00:37:54;19.50;99.90
5802;DHT22;2927;49.366;8.530;2022-08-21T00:40:29;19.50;99.90
5802;DHT22;2927;49.366;8.530;2022-08-21T00:42:55;19.50;99.90
5802;DHT22;2927;49.366;8.530;2022-08-21T00:45:24;19.50;99.90
5802;DHT22;2927;49.366;8.530;2022-08-21T00:47:51;19.50;99.90
5802;DHT22;2927;49.366;8.530;2022-08-21T00:50:18;19.50;99.90
5802;DHT22;2927;49.366;8.530;2022-08-21T00:52:44;19.50;99.90
5802;DHT22;2927;49.366;8.530;2022-08-21T00:55:11;19.50;99.90
5802;DHT22;2927;49.366;8.530;2022-08-21T00:57:47;19.40;99.90
5802;DHT22;2927;49.366;8.530;2022-08-21T01:00:16;19.40;1.00
5802;DHT22;2927;49.366;8.530;2022-08-21T01:02:43;19.10;1.00
5802;DHT22;2927;49.366;8.530;2022-08-21T01:05:09;19.00;1.00
5802;DHT22;2927;49.366;8.530;2022-08-21T01:07:35;18.90;55.00
5802;DHT22;2927;49.366;8.530;2022-08-21T01:10:01;18.90;99.90
5802;DHT22;2927;49.366;8.530;2022-08-21T01:12:27;19.00;99.90
5802;DHT22;2927;49.366;8.530;2022-08-21T01:14:53;19.00;99.90
5802;DHT22;2927;49.366;8.530;2022-08-21T01:17:19;19.00;99.90
5802;DHT22;2927;49.366;8.530;2022-08-21T01:19:46;19.00;99.90
5802;DHT22;2927;49.366;8.530;2022-08-21T01:22:12;19.00;1.00
5802;DHT22;2927;49.366;8.530;2022-08-21T01:24:38;19.10;99.90
5802;DHT22;2927;49.366;8.530;2022-08-21T01:27:04;19.00;1.00
5802;DHT22;2927;49.366;8.530;2022-08-21T01:32:04;19.00;1.00
5802;DHT22;2927;49.366;8.530;2022-08-21T01:34:30;19.00;1.00
5802;DHT22;2927;49.366;8.530;2022-08-21T01:36:55;18.90;1.00
5802;DHT22;2927;49.366;8.530;2022-08-21T01:39:21;18.90;99.90
5802;DHT22;2927;49.366;8.530;2022-08-21T01:41:46;19.00;1.00
5802;DHT22;2927;49.366;8.530;2022-08-21T01:44:12;19.00;99.90
5802;DHT22;2927;49.366;8.530;2022-08-21T01:46:38;19.00;99.90
5802;DHT22;2927;49.366;8.530;2022-08-21T01:49:04;19.00;1.00
5802;DHT22;2927;49.366;8.530;2022-08-21T01:51:29;19.00;1.00
5802;DHT22;2927;49.366;8.530;2022-08-21T01:53:55;18.90;1.00
5802;DHT22;2927;49.366;8.530;2022-08-21T01:56:20;18.90;99.90
5802;DHT22;2927;49.366;8.530;2022-08-21T01:58:47;18.80;27.70
5802;DHT22;2927;49.366;8.530;2022-08-21T02:01:13;18.90;1.00
5802;DHT22;2927;49.366;8.530;2022-08-21T02:03:39;18.90;99.90
5802;DHT22;2927;49.366;8.530;2022-08-21T02:06:05;18.60;99.90
5802;DHT22;2927;49.366;8.530;2022-08-21T02:08:32;18.70;1.00
5802;DHT22;2927;49.366;8.530;2022-08-21T02:10:58;18.70;99.90
5802;DHT22;2927;49.366;8.530;2022-08-21T02:13:24;18.60;1.00
5802;DHT22;2927;49.366;8.530;2022-08-21T02:15:49;18.50;1.00
5802;DHT22;2927;49.366;8.530;2022-08-21T02:18:15;18.60;1.00
5802;DHT22;2927;49.366;8.530;2022-08-21T02:20:43;18.70;99.90
5802;DHT22;2927;49.366;8.530;2022-08-21T02:23:10;18.50;1.00
5802;DHT22;2927;49.366;8.530;2022-08-21T02:25:37;18.40;1.00
5802;DHT22;2927;49.366;8.530;2022-08-21T02:28:05;18.30;1.00
5802;DHT22;2927;49.366;8.530;2022-08-21T02:30:35;18.20;76.00
5802;DHT22;2927;49.366;8.530;2022-08-21T02:33:03;18.10;99.90
5802;DHT22;2927;49.366;8.530;2022-08-21T02:35:29;18.10;99.90
5802;DHT22;2927;49.366;8.530;2022-08-21T02:38:04;18.20;99.90
5802;DHT22;2927;49.366;8.530;2022-08-21T02:40:33;18.20;99.90
5802;DHT22;2927;49.366;8.530;2022-08-21T02:43:00;18.20;1.00
5802;DHT22;2927;49.366;8.530;2022-08-21T02:45:27;18.20;1.00
5802;DHT22;2927;49.366;8.530;2022-08-21T02:47:56;18.10;99.90
5802;DHT22;2927;49.366;8.530;2022-08-21T02:50:29;18.10;1.00
5802;DHT22;2927;49.366;8.530;2022-08-21T02:52:55;18.00;1.00
5802;DHT22;2927;49.366;8.530;2022-08-21T02:55:27;18.00;99.90
5802;DHT22;2927;49.366;8.530;2022-08-21T02:57:54;18.00;1.00
5802;DHT22;2927;49.366;8.530;2022-08-21T03:00:22;18.00;99.90
5802;DHT22;2927;49.366;8.530;2022-08-21T03:02:48;18.00;1.00
5802;DHT22;2927;49.366;8.530;2022-08-21T03:05:15;17.90;99.90
5802;DHT22;2927;49.366;8.530;2022-08-21T03:07:42;17.80;99.90
5802;DHT22;2927;49.366;8.530;2022-08-21T03:10:08;17.70;99.90
5802;DHT22;2927;49.366;8.530;2022-08-21T03:12:34;17.90;99.90
5802;DHT22;2927;49.366;8.530;2022-08-21T03:15:02;17.80;1.00
5802;DHT22;2927;49.366;8.530;2022-08-21T03:17:27;17.80;1.00
5802;DHT22;2927;49.366;8.530;2022-08-21T03:19:53;17.80;99.90
5802;DHT22;2927;49.366;8.530;2022-08-21T03:22:18;17.80;1.00
5802;DHT22;2927;49.366;8.530;2022-08-21T03:24:44;17.90;99.90
5802;DHT22;2927;49.366;8.530;2022-08-21T03:27:10;17.90;1.00
5802;DHT22;2927;49.366;8.530;2022-08-21T03:29:37;17.70;1.00
5802;DHT22;2927;49.366;8.530;2022-08-21T03:32:03;17.50;1.00
5802;DHT22;2927;49.366;8.530;2022-08-21T03:34:29;17.60;1.00
5802;DHT22;2927;49.366;8.530;2022-08-21T03:36:55;17.80;1.00
5802;DHT22;2927;49.366;8.530;2022-08-21T03:39:20;17.80;1.00
5802;DHT22;2927;49.366;8.530;2022-08-21T03:41:46;17.70;99.90
5802;DHT22;2927;49.366;8.530;2022-08-21T03:44:13;17.40;1.00
5802;DHT22;2927;49.366;8.530;2022-08-21T03:46:39;17.20;1.00
5802;DHT22;2927;49.366;8.530;2022-08-21T03:49:05;17.20;25.80
5802;DHT22;2927;49.366;8.530;2022-08-21T03:51:31;17.30;1.00
5802;DHT22;2927;49.366;8.530;2022-08-21T03:53:58;17.30;1.00
5802;DHT22;2927;49.366;8.530;2022-08-21T03:56:24;17.40;99.90
5802;DHT22;2927;49.366;8.530;2022-08-21T03:58:50;17.30;99.90
5802;DHT22;2927;49.366;8.530;2022-08-21T04:01:15;17.30;1.00
5802;DHT22;2927;49.366;8.530;2022-08-21T04:03:41;17.30;99.90
5802;DHT22;2927;49.366;8.530;2022-08-21T04:06:07;17.40;99.90
5802;DHT22;2927;49.366;8.530;2022-08-21T04:08:32;17.30;99.90
5802;DHT22;2927;49.366;8.530;2022-08-21T04:10:59;17.30;99.90
5802;DHT22;2927;49.366;8.530;2022-08-21T04:13:25;17.10;1.00
5802;DHT22;2927;49.366;8.530;2022-08-21T04:15:54;17.10;99.90
5802;DHT22;2927;49.366;8.530;2022-08-21T04:18:20;17.10;1.00
5802;DHT22;2927;49.366;8.530;2022-08-21T04:20:49;17.10;1.00
5802;DHT22;2927;49.366;8.530;2022-08-21T04:23:16;17.10;1.00
5802;DHT22;2927;49.366;8.530;2022-08-21T04:25:41;17.10;1.00
5802;DHT22;2927;49.366;8.530;2022-08-21T04:28:07;17.20;99.90
5802;DHT22;2927;49.366;8.530;2022-08-21T04:30:32;17.30;1.00
5802;DHT22;2927;49.366;8.530;2022-08-21T04:32:58;17.30;1.00
5802;DHT22;2927;49.366;8.530;2022-08-21T04:35:25;17.20;1.00
5802;DHT22;2927;49.366;8.530;2022-08-21T04:37:51;17.20;1.00
5802;DHT22;2927;49.366;8.530;2022-08-21T04:40:18;17.00;1.00
5802;DHT22;2927;49.366;8.530;2022-08-21T04:43:00;17.20;1.00
5802;DHT22;2927;49.366;8.530;2022-08-21T04:45:29;17.20;1.00
5802;DHT22;2927;49.366;8.530;2022-08-21T04:47:57;17.00;1.00
5802;DHT22;2927;49.366;8.530;2022-08-21T04:50:34;17.00;1.00
5802;DHT22;2927;49.366;8.530;2022-08-21T04:53:01;16.70;1.00
5802;DHT22;2927;49.366;8.530;2022-08-21T04:55:27;16.90;94.40
5802;DHT22;2927;49.366;8.530;2022-08-21T04:57:54;17.00;1.00
5802;DHT22;2927;49.366;8.530;2022-08-21T05:00:22;16.80;99.90
5802;DHT22;2927;49.366;8.530;2022-08-21T05:02:49;16.70;1.00
5802;DHT22;2927;49.366;8.530;2022-08-21T05:05:15;16.90;1.00
5802;DHT22;2927;49.366;8.530;2022-08-21T05:07:42;17.10;99.90
5802;DHT22;2927;49.366;8.530;2022-08-21T05:10:10;17.10;1.00
5802;DHT22;2927;49.366;8.530;2022-08-21T05:12:35;17.00;1.00
5802;DHT22;2927;49.366;8.530;2022-08-21T05:15:02;16.80;99.90
5802;DHT22;2927;49.366;8.530;2022-08-21T05:17:28;16.80;1.00
5802;DHT22;2927;49.366;8.530;2022-08-21T05:19:54;16.90;1.00
5802;DHT22;2927;49.366;8.530;2022-08-21T05:22:21;16.80;1.00
5802;DHT22;2927;49.366;8.530;2022-08-21T05:24:47;16.80;1.00
5802;DHT22;2927;49.366;8.530;2022-08-21T05:27:13;16.80;99.90
5802;DHT22;2927;49.366;8.530;2022-08-21T05:29:38;16.80;1.00
5802;DHT22;2927;49.366;8.530;2022-08-21T05:32:11;16.80;56.70
5802;DHT22;2927;49.366;8.530;2022-08-21T05:34:37;17.00;1.00
5802;DHT22;2927;49.366;8.530;2022-08-21T05:37:02;17.30;99.90
5802;DHT22;2927;49.366;8.530;2022-08-21T05:39:28;17.30;99.90
5802;DHT22;2927;49.366;8.530;2022-08-21T05:41:53;17.40;1.00
5802;DHT22;2927;49.366;8.530;2022-08-21T05:44:19;17.50;1.00
5802;DHT22;2927;49.366;8.530;2022-08-21T05:46:44;17.40;99.90
5802;DHT22;2927;49.366;8.530;2022-08-21T05:49:11;17.60;1.00
5802;DHT22;2927;49.366;8.530;2022-08-21T05:51:38;17.60;99.90
5802;DHT22;2927;49.366;8.530;2022-08-21T05:54:04;17.80;1.00
5802;DHT22;2927;49.366;8.530;2022-08-21T05:56:30;17.90;99.90
5802;DHT22;2927;49.366;8.530;2022-08-21T05:58:55;18.10;93.80
5802;DHT22;2927;49.366;8.530;2022-08-21T06:01:21;18.20;99.90
5802;DHT22;2927;49.366;8.530;2022-08-21T06:03:46;18.40;1.00
5802;DHT22;2927;49.366;8.530;2022-08-21T06:06:12;18.60;1.00
5802;DHT22;2927;49.366;8.530;2022-08-21T06:08:37;18.80;1.00
5802;DHT22;2927;49.366;8.530;2022-08-21T06:11:04;19.10;1.00
5802;DHT22;2927;49.366;8.530;2022-08-21T06:13:30;19.30;98.40
5802;DHT22;2927;49.366;8.530;2022-08-21T06:18:33;19.70;1.00
5802;DHT22;2927;49.366;8.530;2022-08-21T06:20:59;19.60;1.00
5802;DHT22;2927;49.366;8.530;2022-08-21T06:23:24;19.50;1.00
5802;DHT22;2927;49.366;8.530;2022-08-21T06:25:50;19.70;99.90
5802;DHT22;2927;49.366;8.530;2022-08-21T06:28:16;19.80;1.00
5802;DHT22;2927;49.366;8.530;2022-08-21T06:30:41;19.90;1.00
5802;DHT22;2927;49.366;8.530;2022-08-21T06:33:07;20.40;1.00
5802;DHT22;2927;49.366;8.530;2022-08-21T06:35:34;20.50;1.00
5802;DHT22;2927;49.366;8.530;2022-08-21T06:37:59;21.00;99.90
5802;DHT22;2927;49.366;8.530;2022-08-21T06:40:26;20.70;99.90
5802;DHT22;2927;49.366;8.530;2022-08-21T06:42:52;20.90;1.00
5802;DHT22;2927;49.366;8.530;2022-08-21T06:45:18;21.00;1.00
5802;DHT22;2927;49.366;8.530;2022-08-21T06:47:44;20.80;76.60
5802;DHT22;2927;49.366;8.530;2022-08-21T06:50:09;20.60;99.90
5802;DHT22;2927;49.366;8.530;2022-08-21T06:52:36;20.50;99.90
5802;DHT22;2927;49.366;8.530;2022-08-21T06:55:03;20.70;1.00
5802;DHT22;2927;49.366;8.530;2022-08-21T06:57:29;20.90;1.00
5802;DHT22;2927;49.366;8.530;2022-08-21T06:59:54;21.50;99.90
5802;DHT22;2927;49.366;8.530;2022-08-21T07:02:20;21.30;99.90
5802;DHT22;2927;49.366;8.530;2022-08-21T07:04:45;21.10;1.00
5802;DHT22;2927;49.366;8.530;2022-08-21T07:07:11;21.30;1.00
5802;DHT22;2927;49.366;8.530;2022-08-21T07:09:36;21.40;99.90
5802;DHT22;2927;49.366;8.530;2022-08-21T07:12:03;22.10;1.00
5802;DHT22;2927;49.366;8.530;2022-08-21T07:14:28;22.40;1.00
5802;DHT22;2927;49.366;8.530;2022-08-21T07:16:54;22.70;99.90
5802;DHT22;2927;49.366;8.530;2022-08-21T07:19:20;22.70;99.90
5802;DHT22;2927;49.366;8.530;2022-08-21T07:21:45;22.60;99.90
5802;DHT22;2927;49.366;8.530;2022-08-21T07:24:11;22.80;1.00
5802;DHT22;2927;49.366;8.530;2022-08-21T07:26:37;22.80;1.00
5802;DHT22;2927;49.366;8.530;2022-08-21T07:29:04;22.90;1.00
5802;DHT22;2927;49.366;8.530;2022-08-21T07:31:30;23.40;1.00
5802;DHT22;2927;49.366;8.530;2022-08-21T07:33:55;23.30;1.00
5802;DHT22;2927;49.366;8.530;2022-08-21T07:36:21;24.00;1.00
5802;DHT22;2927;49.366;8.530;2022-08-21T07:38:47;24.20;1.00
5802;DHT22;2927;49.366;8.530;2022-08-21T07:41:19;23.40;1.00
5802;DHT22;2927;49.366;8.530;2022-08-21T07:43:45;23.20;1.00
5802;DHT22;2927;49.366;8.530;2022-08-21T07:46:11;23.30;1.00
5802;DHT22;2927;49.366;8.530;2022-08-21T07:48:37;23.30;1.00
5802;DHT22;2927;49.366;8.530;2022-08-21T07:51:07;22.90;1.00
5802;DHT22;2927;49.366;8.530;2022-08-21T07:53:33;23.00;1.00
5802;DHT22;2927;49.366;8.530;2022-08-21T07:55:59;23.50;1.00
5802;DHT22;2927;49.366;8.530;2022-08-21T07:58:24;23.70;1.00
5802;DHT22;2927;49.366;8.530;2022-08-21T08:00:50;24.20;1.00
5802;DHT22;2927;49.366;8.530;2022-08-21T08:03:15;24.60;1.00
5802;DHT22;2927;49.366;8.530;2022-08-21T08:05:41;23.90;1.00
5802;DHT22;2927;49.366;8.530;2022-08-21T08:08:07;23.60;1.00
5802;DHT22;2927;49.366;8.530;2022-08-21T08:10:33;23.70;1.00
5802;DHT22;2927;49.366;8.530;2022-08-21T08:12:58;23.50;1.00
5802;DHT22;2927;49.366;8.530;2022-08-21T08:15:26;23.20;1.00
5802;DHT22;2927;49.366;8.530;2022-08-21T08:17:52;23.50;1.00
5802;DHT22;2927;49.366;8.530;2022-08-21T08:20:19;24.00;1.00
5802;DHT22;2927;49.366;8.530;2022-08-21T08:22:45;24.60;1.00
5802;DHT22;2927;49.366;8.530;2022-08-21T08:25:12;24.60;1.00
5802;DHT22;2927;49.366;8.530;2022-08-21T08:27:38;24.80;1.00
5802;DHT22;2927;49.366;8.530;2022-08-21T08:30:05;25.40;1.00
5802;DHT22;2927;49.366;8.530;2022-08-21T08:32:32;25.50;1.00
5802;DHT22;2927;49.366;8.530;2022-08-21T08:34:57;25.70;1.00
5802;DHT22;2927;49.366;8.530;2022-08-21T08:37:24;25.00;1.00
5802;DHT22;2927;49.366;8.530;2022-08-21T08:39:49;24.80;1.00
5802;DHT22;2927;49.366;8.530;2022-08-21T08:42:25;24.60;1.00
5802;DHT22;2927;49.366;8.530;2022-08-21T08:45:16;25.50;1.00
5802;DHT22;2927;49.366;8.530;2022-08-21T08:47:45;25.70;1.00
5802;DHT22;2927;49.366;8.530;2022-08-21T08:50:18;24.70;1.00
5802;DHT22;2927;49.366;8.530;2022-08-21T08:52:49;24.20;1.00
5802;DHT22;2927;49.366;8.530;2022-08-21T08:55:33;24.10;1.00
5802;DHT22;2927;49.366;8.530;2022-08-21T08:57:59;24.20;1.00
5802;DHT22;2927;49.366;8.530;2022-08-21T09:00:28;24.50;1.00
5802;DHT22;2927;49.366;8.530;2022-08-21T09:02:59;24.00;1.00
5802;DHT22;2927;49.366;8.530;2022-08-21T09:05:28;24.10;1.00
5802;DHT22;2927;49.366;8.530;2022-08-21T09:08:10;24.10;1.00
5802;DHT22;2927;49.366;8.530;2022-08-21T09:14:14;24.20;1.00
5802;DHT22;2927;49.366;8.530;2022-08-21T09:19:36;24.80;1.00
5802;DHT22;2927;49.366;8.530;2022-08-21T09:25:32;24.80;1.00
5802;DHT22;2927;49.366;8.530;2022-08-21T09:27:50;25.50;1.00
5802;DHT22;2927;49.366;8.530;2022-08-21T09:30:17;25.40;1.00
5802;DHT22;2927;49.366;8.530;2022-08-21T09:32:43;25.40;1.00
5802;DHT22;2927;49.366;8.530;2022-08-21T09:35:10;25.40;1.00
5802;DHT22;2927;49.366;8.530;2022-08-21T09:38:03;25.80;1.00
5802;DHT22;2927;49.366;8.530;2022-08-21T09:43:23;27.00;99.90
5802;DHT22;2927;49.366;8.530;2022-08-21T09:48:27;26.20;99.90
5802;DHT22;2927;49.366;8.530;2022-08-21T09:50:53;26.10;99.90
5802;DHT22;2927;49.366;8.530;2022-08-21T09:53:20;26.60;99.90
5802;DHT22;2927;49.366;8.530;2022-08-21T09:55:54;27.30;99.90
5802;DHT22;2927;49.366;8.530;2022-08-21T09:58:42;27.50;99.90
5802;DHT22;2927;49.366;8.530;2022-08-21T10:01:15;27.30;99.90
5802;DHT22;2927;49.366;8.530;2022-08-21T10:03:41;27.30;99.90
5802;DHT22;2927;49.366;8.530;2022-08-21T10:06:08;26.70;99.90
5802;DHT22;2927;49.366;8.530;2022-08-21T10:08:38;26.40;99.90
5802;DHT22;2927;49.366;8.530;2022-08-21T10:11:10;26.00;99.90
5802;DHT22;2927;49.366;8.530;2022-08-21T10:14:22;25.90;99.90
5802;DHT22;2927;49.366;8.530;2022-08-21T10:19:43;25.50;99.90
5802;DHT22;2927;49.366;8.530;2022-08-21T10:25:18;25.10;99.90
5802;DHT22;2927;49.366;8.530;2022-08-21T10:28:14;25.10;99.90
5802;DHT22;2927;49.366;8.530;2022-08-21T10:31:03;25.00;99.90
5802;DHT22;2927;49.366;8.530;2022-08-21T10:39:02;25.90;99.90
5802;DHT22;2927;49.366;8.530;2022-08-21T10:41:43;26.20;99.90
5802;DHT22;2927;49.366;8.530;2022-08-21T10:47:15;26.60;99.90
5802;DHT22;2927;49.366;8.530;2022-08-21T10:49:53;26.40;99.90
5802;DHT22;2927;49.366;8.530;2022-08-21T10:52:52;26.20;99.90
5802;DHT22;2927;49.366;8.530;2022-08-21T10:55:25;26.30;99.90
5802;DHT22;2927;49.366;8.530;2022-08-21T10:58:01;26.10;99.90
5802;DHT22;2927;49.366;8.530;2022-08-21T11:00:55;26.20;99.90
5802;DHT22;2927;49.366;8.530;2022-08-21T11:03:45;26.20;99.90
5802;DHT22;2927;49.366;8.530;2022-08-21T11:08:48;26.80;99.90
5802;DHT22;2927;49.366;8.530;2022-08-21T11:11:29;26.90;99.90
5802;DHT22;2927;49.366;8.530;2022-08-21T11:14:13;26.80;99.90
5802;DHT22;2927;49.366;8.530;2022-08-21T11:16:46;26.60;99.90
5802;DHT22;2927;49.366;8.530;2022-08-21T11:24:41;27.00;99.90
5802;DHT22;2927;49.366;8.530;2022-08-21T11:29:55;27.10;99.90
5802;DHT22;2927;49.366;8.530;2022-08-21T11:35:39;26.90;99.90
5802;DHT22;2927;49.366;8.530;2022-08-21T11:38:35;27.10;99.90
5802;DHT22;2927;49.366;8.530;2022-08-21T11:41:28;27.30;99.90
5802;DHT22;2927;49.366;8.530;2022-08-21T11:44:10;27.30;99.90
5802;DHT22;2927;49.366;8.530;2022-08-21T11:49:49;27.50;99.90
5802;DHT22;2927;49.366;8.530;2022-08-21T11:52:22;27.10;99.90
5802;DHT22;2927;49.366;8.530;2022-08-21T11:57:44;27.20;99.90
5802;DHT22;2927;49.366;8.530;2022-08-21T12:00:20;27.20;99.90
5802;DHT22;2927;49.366;8.530;2022-08-21T12:02:56;27.40;99.90
5802;DHT22;2927;49.366;8.530;2022-08-21T12:05:30;27.40;99.90
5802;DHT22;2927;49.366;8.530;2022-08-21T12:10:34;27.60;99.90
5802;DHT22;2927;49.366;8.530;2022-08-21T12:13:21;27.70;99.90
5802;DHT22;2927;49.366;8.530;2022-08-21T12:15:47;27.70;99.90
5802;DHT22;2927;49.366;8.530;2022-08-21T12:18:28;27.60;99.90
5802;DHT22;2927;49.366;8.530;2022-08-21T12:21:15;27.70;99.90
5802;DHT22;2927;49.366;8.530;2022-08-21T12:23:57;27.80;99.90
5802;DHT22;2927;49.366;8.530;2022-08-21T12:26:33;27.70;99.90
5802;DHT22;2927;49.366;8.530;2022-08-21T12:29:12;27.80;99.90
5802;DHT22;2927;49.366;8.530;2022-08-21T12:31:52;27.60;99.90
5802;DHT22;2927;49.366;8.530;2022-08-21T12:34:20;27.40;99.90
5802;DHT22;2927;49.366;8.530;2022-08-21T12:36:57;27.40;99.90
5802;DHT22;2927;49.366;8.530;2022-08-21T12:39:26;27.70;99.90
5802;DHT22;2927;49.366;8.530;2022-08-21T12:42:00;28.00;99.90
5802;DHT22;2927;49.366;8.530;2022-08-21T12:44:35;28.00;99.90
5802;DHT22;2927;49.366;8.530;2022-08-21T12:47:11;28.00;99.90
5802;DHT22;2927;49.366;8.530;2022-08-21T12:49:52;28.20;99.90
5802;DHT22;2927;49.366;8.530;2022-08-21T12:52:24;28.00;99.90
5802;DHT22;2927;49.366;8.530;2022-08-21T12:54:50;28.00;99.90
5802;DHT22;2927;49.366;8.530;2022-08-21T12:57:24;28.00;99.90
5802;DHT22;2927;49.366;8.530;2022-08-21T13:00:05;28.10;99.90
5802;DHT22;2927;49.366;8.530;2022-08-21T13:02:41;28.10;99.90
5802;DHT22;2927;49.366;8.530;2022-08-21T13:05:13;28.00;99.90
5802;DHT22;2927;49.366;8.530;2022-08-21T13:07:44;28.50;99.90
5802;DHT22;2927;49.366;8.530;2022-08-21T13:10:27;28.50;99.90
5802;DHT22;2927;49.366;8.530;2022-08-21T13:12:58;28.40;99.90
5802;DHT22;2927;49.366;8.530;2022-08-21T13:15:37;28.30;99.90
5802;DHT22;2927;49.366;8.530;2022-08-21T13:18:05;28.20;99.90
5802;DHT22;2927;49.366;8.530;2022-08-21T13:20:37;28.10;99.90
5802;DHT22;2927;49.366;8.530;2022-08-21T13:23:18;28.20;99.90
5802;DHT22;2927;49.366;8.530;2022-08-21T13:25:44;28.20;99.90
5802;DHT22;2927;49.366;8.530;2022-08-21T13:28:12;28.30;99.90
5802;DHT22;2927;49.366;8.530;2022-08-21T13:30:42;28.20;99.90
5802;DHT22;2927;49.366;8.530;2022-08-21T13:33:09;28.20;99.90
5802;DHT22;2927;49.366;8.530;2022-08-21T13:38:15;28.60;99.90
5802;DHT22;2927;49.366;8.530;2022-08-21T13:40:54;28.50;99.90
5802;DHT22;2927;49.366;8.530;2022-08-21T13:43:27;28.40;99.90
5802;DHT22;2927;49.366;8.530;2022-08-21T13:45:55;28.50;99.90
5802;DHT22;2927;49.366;8.530;2022-08-21T13:48:23;28.40;99.90
5802;DHT22;2927;49.366;8.530;2022-08-21T13:50:50;28.20;99.90
5802;DHT22;2927;49.366;8.530;2022-08-21T13:55:51;28.10;99.90
5802;DHT22;2927;49.366;8.530;2022-08-21T14:00:55;27.80;99.90
5802;DHT22;2927;49.366;8.530;2022-08-21T14:03:55;27.80;99.90
5802;DHT22;2927;49.366;8.530;2022-08-21T14:06:25;28.00;99.90
5802;DHT22;2927;49.366;8.530;2022-08-21T14:08:55;28.00;99.90
5802;DHT22;2927;49.366;8.530;2022-08-21T14:11:22;28.00;99.90
5802;DHT22;2927;49.366;8.530;2022-08-21T14:14:00;28.30;99.90
5802;DHT22;2927;49.366;8.530;2022-08-21T14:16:41;28.50;99.90
5802;DHT22;2927;49.366;8.530;2022-08-21T14:19:28;28.40;99.90
5802;DHT22;2927;49.366;8.530;2022-08-21T14:22:00;28.10;99.90
5802;DHT22;2927;49.366;8.530;2022-08-21T14:24:29;28.30;99.90
5802;DHT22;2927;49.366;8.530;2022-08-21T14:27:06;28.20;99.90
5802;DHT22;2927;49.366;8.530;2022-08-21T14:29:35;28.20;99.90
5802;DHT22;2927;49.366;8.530;2022-08-21T14:34:37;28.40;99.90
5802;DHT22;2927;49.366;8.530;2022-08-21T14:37:03;28.50;99.90
5802;DHT22;2927;49.366;8.530;2022-08-21T14:39:28;28.50;99.90
5802;DHT22;2927;49.366;8.530;2022-08-21T14:41:54;28.80;99.90
5802;DHT22;2927;49.366;8.530;2022-08-21T14:44:22;29.00;99.90
5802;DHT22;2927;49.366;8.530;2022-08-21T14:46:48;28.90;99.90
5802;DHT22;2927;49.366;8.530;2022-08-21T14:49:13;29.00;99.90
5802;DHT22;2927;49.366;8.530;2022-08-21T14:51:39;28.80;99.90
5802;DHT22;2927;49.366;8.530;2022-08-21T14:54:05;28.80;99.90
5802;DHT22;2927;49.366;8.530;2022-08-21T14:56:31;28.90;99.90
5802;DHT22;2927;49.366;8.530;2022-08-21T14:59:04;28.90;99.90
5802;DHT22;2927;49.366;8.530;2022-08-21T15:01:31;29.40;99.90
5802;DHT22;2927;49.366;8.530;2022-08-21T15:03:58;30.30;99.90
5802;DHT22;2927;49.366;8.530;2022-08-21T15:06:23;30.80;99.90
5802;DHT22;2927;49.366;8.530;2022-08-21T15:08:49;30.80;99.90
5802;DHT22;2927;49.366;8.530;2022-08-21T15:11:19;30.90;99.90
5802;DHT22;2927;49.366;8.530;2022-08-21T15:13:46;31.40;99.90
5802;DHT22;2927;49.366;8.530;2022-08-21T15:16:12;31.10;99.90
5802;DHT22;2927;49.366;8.530;2022-08-21T15:18:38;30.60;99.90
5802;DHT22;2927;49.366;8.530;2022-08-21T15:21:04;30.10;99.90
5802;DHT22;2927;49.366;8.530;2022-08-21T15:23:29;30.30;99.90
5802;DHT22;2927;49.366;8.530;2022-08-21T15:25:55;31.00;99.90
5802;DHT22;2927;49.366;8.530;2022-08-21T15:28:23;31.40;99.90
5802;DHT22;2927;49.366;8.530;2022-08-21T15:30:49;31.60;99.90
5802;DHT22;2927;49.366;8.530;2022-08-21T15:33:16;31.90;99.90
5802;DHT22;2927;49.366;8.530;2022-08-21T15:35:41;31.80;99.30
5802;DHT22;2927;49.366;8.530;2022-08-21T15:38:07;30.80;99.90
5802;DHT22;2927;49.366;8.530;2022-08-21T15:40:34;30.00;99.90
5802;DHT22;2927;49.366;8.530;2022-08-21T15:43:01;30.00;99.90
5802;DHT22;2927;49.366;8.530;2022-08-21T15:45:28;29.80;99.90
5802;DHT22;2927;49.366;8.530;2022-08-21T15:47:55;30.30;99.90
5802;DHT22;2927;49.366;8.530;2022-08-21T15:50:21;31.00;99.90
5802;DHT22;2927;49.366;8.530;2022-08-21T15:52:47;30.60;99.90
5802;DHT22;2927;49.366;8.530;2022-08-21T15:55:13;30.80;99.90
5802;DHT22;2927;49.366;8.530;2022-08-21T15:57:44;30.50;99.90
5802;DHT22;2927;49.366;8.530;2022-08-21T16:00:14;31.20;98.90
5802;DHT22;2927;49.366;8.530;2022-08-21T16:02:42;32.00;93.50
5802;DHT22;2927;49.366;8.530;2022-08-21T16:05:09;32.00;90.90
5802;DHT22;2927;49.366;8.530;2022-08-21T16:07:36;31.60;88.70
5802;DHT22;2927;49.366;8.530;2022-08-21T16:10:03;31.30;1.00
5802;DHT22;2927;49.366;8.530;2022-08-21T16:12:32;31.40;1.00
5802;DHT22;2927;49.366;8.530;2022-08-21T16:14:59;31.30;1.00
5802;DHT22;2927;49.366;8.530;2022-08-21T16:17:29;31.10;1.00
5802;DHT22;2927;49.366;8.530;2022-08-21T16:19:56;31.30;1.00
5802;DHT22;2927;49.366;8.530;2022-08-21T16:22:22;31.20;1.00
5802;DHT22;2927;49.366;8.530;2022-08-21T16:24:48;31.30;1.00
5802;DHT22;2927;49.366;8.530;2022-08-21T16:27:14;31.40;1.00
5802;DHT22;2927;49.366;8.530;2022-08-21T16:29:41;31.50;1.00
5802;DHT22;2927;49.366;8.530;2022-08-21T16:32:07;30.80;1.00
5802;DHT22;2927;49.366;8.530;2022-08-21T16:34:34;30.20;1.00
5802;DHT22;2927;49.366;8.530;2022-08-21T16:37:00;29.80;1.00
5802;DHT22;2927;49.366;8.530;2022-08-21T16:39:26;29.50;3.00
5802;DHT22;2927;49.366;8.530;2022-08-21T16:41:51;29.20;6.00
5802;DHT22;2927;49.366;8.530;2022-08-21T16:44:20;29.00;5.60
5802;DHT22;2927;49.366;8.530;2022-08-21T16:46:46;28.40;10.80
5802;DHT22;2927;49.366;8.530;2022-08-21T16:49:12;28.20;37.60
5802;DHT22;2927;49.366;8.530;2022-08-21T16:51:39;28.30;17.20
5802;DHT22;2927;49.366;8.530;2022-08-21T16:54:04;28.40;16.70
5802;DHT22;2927;49.366;8.530;2022-08-21T16:56:30;28.30;17.90
5802;DHT22;2927;49.366;8.530;2022-08-21T16:58:56;28.40;23.70
5802;DHT22;2927;49.366;8.530;2022-08-21T17:01:26;28.40;18.90
5802;DHT22;2927;49.366;8.530;2022-08-21T17:03:53;28.30;17.80
5802;DHT22;2927;49.366;8.530;2022-08-21T17:06:20;28.20;19.60
5802;DHT22;2927;49.366;8.530;2022-08-21T17:08:46;28.10;21.20
5802;DHT22;2927;49.366;8.530;2022-08-21T17:13:46;27.70;25.20
5802;DHT22;2927;49.366;8.530;2022-08-21T17:16:12;27.60;27.90
5802;DHT22;2927;49.366;8.530;2022-08-21T17:18:37;27.60;27.30
5802;DHT22;2927;49.366;8.530;2022-08-21T17:21:03;27.60;29.10
5802;DHT22;2927;49.366;8.530;2022-08-21T17:23:28;27.50;33.00
5802;DHT22;2927;49.366;8.530;2022-08-21T17:25:54;27.40;34.60
